Time;durP1;ratioP1;P1;durP2;ratioP2;P2;SDS_P1;SDS_P2;PMS_P1;PMS_P2;Temp;Humidity;BMP_temperature;BMP_pressure;BME280_temperature;BME280_humidity;BME280_pressure;Samples;Min_cycle;Max_cycle;Signal;HPM_P1;HPM_P2
2021/05/13 00:01:31;;;;;;;15.07;6.30;;;14.30;70.60;;;;;;5037615;28;20428;-77
2021/05/13 00:03:57;;;;;;;15.65;6.95;;;14.30;70.60;;;;;;5038384;28;20048;-79
2021/05/13 00:06:23;;;;;;;18.45;7.57;;;14.30;70.60;;;;;;5037180;28;20049;-77
2021/05/13 00:08:58;;;;;;;13.95;6.40;;;14.30;70.60;;;;;;5054886;28;20087;-77
2021/05/13 00:11:30;;;;;;;15.25;6.75;;;14.30;70.60;;;;;;5022926;28;20047;-78
2021/05/13 00:13:57;;;;;;;16.65;7.43;;;14.30;70.70;;;;;;5021802;28;20033;-78
2021/05/13 00:16:28;;;;;;;16.30;6.90;;;14.30;70.70;;;;;;5021140;28;20089;-77
2021/05/13 00:18:55;;;;;;;15.43;6.35;;;14.30;70.80;;;;;;5006688;28;20103;-76
2021/05/13 00:21:20;;;;;;;15.25;5.95;;;14.20;70.80;;;;;;5036906;28;20056;-75
2021/05/13 00:23:46;;;;;;;16.23;6.95;;;14.20;70.80;;;;;;5037357;28;20064;-75
2021/05/13 00:26:12;;;;;;;17.17;7.07;;;14.20;70.80;;;;;;5054322;28;20040;-76
2021/05/13 00:28:38;;;;;;;16.42;6.72;;;14.20;70.90;;;;;;5019299;28;20049;-76
2021/05/13 00:31:06;;;;;;;14.85;6.85;;;14.20;71.00;;;;;;5030356;28;20045;-77
2021/05/13 00:33:32;;;;;;;19.17;7.20;;;14.20;71.00;;;;;;5001295;28;20060;-78
2021/05/13 00:35:57;;;;;;;15.77;7.47;;;14.20;71.00;;;;;;5036853;28;20053;-77
2021/05/13 00:38:24;;;;;;;17.67;7.07;;;14.20;71.10;;;;;;5055062;28;20048;-78
2021/05/13 00:40:50;;;;;;;16.48;6.65;;;14.20;71.20;;;;;;5021391;28;20072;-76
2021/05/13 00:43:15;;;;;;;12.70;6.65;;;14.20;71.30;;;;;;5021315;28;20079;-77
2021/05/13 00:45:41;;;;;;;15.38;7.30;;;14.20;71.30;;;;;;5017158;28;20049;-76
2021/05/13 00:48:14;;;;;;;18.08;7.43;;;14.10;71.40;;;;;;4985245;28;20045;-76
2021/05/13 00:50:42;;;;;;;16.67;6.65;;;14.10;71.40;;;;;;5003250;28;20049;-77
2021/05/13 00:53:09;;;;;;;16.00;6.63;;;14.10;71.50;;;;;;5002237;28;20038;-77
2021/05/13 00:55:35;;;;;;;15.45;6.00;;;14.10;72.30;;;;;;5013382;28;20048;-77
2021/05/13 00:58:04;;;;;;;17.50;6.85;;;14.10;71.50;;;;;;5037840;28;20398;-77
2021/05/13 01:00:35;;;;;;;16.38;6.25;;;14.10;71.70;;;;;;5055068;28;20127;-77
2021/05/13 01:03:02;;;;;;;16.85;6.05;;;14.10;71.70;;;;;;5038006;28;20033;-78
2021/05/13 01:05:28;;;;;;;19.17;6.47;;;14.00;71.70;;;;;;5036949;28;20072;-76
2021/05/13 01:07:54;;;;;;;16.33;6.38;;;14.00;71.70;;;;;;5037823;28;20073;-77
2021/05/13 01:10:19;;;;;;;15.82;5.40;;;14.00;71.80;;;;;;5025113;28;20511;-77
2021/05/13 01:12:46;;;;;;;17.42;6.18;;;14.00;71.90;;;;;;5040969;28;20751;-78
2021/05/13 01:15:34;;;;;;;16.15;6.43;;;14.00;71.90;;;;;;5024478;28;20041;-78
2021/05/13 01:20:36;;;;;;;15.57;5.95;;;14.00;71.90;;;;;;5040729;28;20045;-78
2021/05/13 01:23:11;;;;;;;15.27;5.85;;;14.00;72.00;;;;;;5039165;28;20045;-77
2021/05/13 01:25:44;;;;;;;13.82;6.20;;;14.00;72.10;;;;;;5006244;28;20069;-81
2021/05/13 01:28:11;;;;;;;14.77;6.35;;;13.90;72.00;;;;;;5005375;28;20120;-77
2021/05/13 01:30:37;;;;;;;13.85;6.47;;;13.90;72.00;;;;;;5018292;28;20517;-77
2021/05/13 01:33:03;;;;;;;13.98;6.32;;;13.90;72.00;;;;;;5024971;28;20051;-78
2021/05/13 01:35:31;;;;;;;17.98;6.15;;;13.90;72.00;;;;;;5024124;28;20049;-79
2021/05/13 01:38:07;;;;;;;14.70;5.32;;;13.90;72.00;;;;;;5024563;28;20124;-77
2021/05/13 01:40:40;;;;;;;13.52;6.47;;;13.90;72.20;;;;;;5025127;28;20122;-82
2021/05/13 01:43:15;;;;;;;13.73;6.00;;;13.80;72.10;;;;;;5012565;28;20107;-78
2021/05/13 01:45:41;;;;;;;15.15;5.63;;;13.80;72.20;;;;;;5024144;28;20053;-76
2021/05/13 01:48:07;;;;;;;13.18;5.43;;;13.80;72.20;;;;;;5058793;28;20041;-77
2021/05/13 01:50:33;;;;;;;12.73;5.43;;;13.80;72.20;;;;;;5040368;28;20477;-78
2021/05/13 01:53:01;;;;;;;20.38;6.00;;;13.80;72.30;;;;;;5058666;28;20064;-77
2021/05/13 01:55:27;;;;;;;14.25;5.70;;;13.80;72.30;;;;;;5059359;28;20128;-77
2021/05/13 01:57:53;;;;;;;13.10;5.72;;;13.70;72.20;;;;;;5041023;28;20571;-77
2021/05/13 02:00:20;;;;;;;15.93;5.40;;;13.70;72.30;;;;;;5040844;28;20067;-78
2021/05/13 02:02:48;;;;;;;14.77;5.28;;;13.70;72.20;;;;;;5040428;28;20088;-78
2021/05/13 02:05:15;;;;;;;15.15;5.50;;;13.70;72.20;;;;;;5025182;28;20049;-76
2021/05/13 02:07:41;;;;;;;13.75;5.93;;;13.70;72.30;;;;;;5023895;28;20474;-78
2021/05/13 02:10:10;;;;;;;14.20;5.45;;;13.70;72.30;;;;;;5024023;28;20123;-77
2021/05/13 02:12:36;;;;;;;13.68;5.72;;;13.70;72.30;;;;;;5024091;28;20095;-78
2021/05/13 02:15:03;;;;;;;14.45;6.20;;;13.60;72.30;;;;;;5040261;28;20041;-77
2021/05/13 02:17:29;;;;;;;13.25;6.00;;;13.60;72.30;;;;;;5040403;28;20037;-78
2021/05/13 02:19:55;;;;;;;12.18;5.47;;;13.60;72.40;;;;;;5039622;28;20448;-77
2021/05/13 02:22:23;;;;;;;15.43;6.22;;;13.60;72.50;;;;;;5008008;28;20131;-77
2021/05/13 02:24:50;;;;;;;17.73;6.10;;;13.60;73.30;;;;;;5040919;28;20041;-78
2021/05/13 02:27:16;;;;;;;12.43;5.78;;;13.60;72.50;;;;;;5023970;28;20045;-77
2021/05/13 02:29:51;;;;;;;15.60;6.80;;;13.60;72.60;;;;;;5056744;28;20057;-77
2021/05/13 02:32:19;;;;;;;12.88;5.38;;;13.60;72.70;;;;;;5024380;28;20041;-78
2021/05/13 02:34:45;;;;;;;14.30;6.60;;;13.60;72.70;;;;;;5022993;28;20051;-77
2021/05/13 02:37:10;;;;;;;14.70;5.20;;;13.60;72.70;;;;;;5057451;28;20055;-77
2021/05/13 02:39:39;;;;;;;17.20;6.30;;;13.50;72.70;;;;;;5006839;28;20095;-85
2021/05/13 02:42:05;;;;;;;13.43;6.60;;;13.50;72.80;;;;;;5023910;28;20083;-76
2021/05/13 02:44:39;;;;;;;14.20;6.07;;;13.50;72.90;;;;;;5039828;28;20036;-77
2021/05/13 02:47:05;;;;;;;12.32;5.68;;;13.50;73.10;;;;;;5057779;28;20474;-77
2021/05/13 02:49:30;;;;;;;15.43;6.43;;;13.50;73.00;;;;;;5057423;28;20051;-77
2021/05/13 02:51:58;;;;;;;13.52;6.22;;;13.50;73.00;;;;;;5039057;28;20359;-77
2021/05/13 02:54:24;;;;;;;12.07;5.75;;;13.40;73.00;;;;;;5040014;28;20102;-78
2021/05/13 02:56:52;;;;;;;16.73;6.32;;;13.50;73.10;;;;;;5023011;28;20120;-77
2021/05/13 02:59:18;;;;;;;15.80;6.53;;;13.40;73.10;;;;;;5025382;28;20072;-77
2021/05/13 03:01:44;;;;;;;18.63;6.05;;;13.40;73.20;;;;;;5058881;28;20473;-78
2021/05/13 03:04:10;;;;;;;17.02;6.35;;;13.40;73.20;;;;;;5024869;28;20037;-77
2021/05/13 03:06:39;;;;;;;13.75;6.55;;;13.40;73.30;;;;;;5025560;28;20145;-78
2021/05/13 03:09:05;;;;;;;17.67;6.43;;;13.40;73.30;;;;;;5025049;28;20048;-77
2021/05/13 03:11:31;;;;;;;21.95;7.55;;;13.40;73.30;;;;;;5041193;28;20071;-77
2021/05/13 03:13:59;;;;;;;13.27;6.25;;;13.40;73.40;;;;;;5058635;28;20044;-76
2021/05/13 03:16:25;;;;;;;13.60;6.53;;;13.30;73.30;;;;;;5026670;28;20079;-78
2021/05/13 03:18:51;;;;;;;14.82;7.10;;;13.30;73.40;;;;;;5030906;28;20045;-78
2021/05/13 03:21:26;;;;;;;15.48;7.78;;;13.30;73.40;;;;;;5005873;28;20621;-78
2021/05/13 03:24:01;;;;;;;17.38;7.40;;;13.30;73.60;;;;;;5036515;28;20065;-77
2021/05/13 03:26:36;;;;;;;15.07;6.90;;;13.30;73.50;;;;;;5028069;28;20057;-77
2021/05/13 03:29:02;;;;;;;14.63;6.88;;;13.20;73.50;;;;;;5026909;28;20460;-78
2021/05/13 03:31:28;;;;;;;15.18;6.55;;;13.20;73.50;;;;;;5042522;28;20075;-76
2021/05/13 03:33:54;;;;;;;15.40;6.57;;;13.20;73.60;;;;;;5026136;28;20037;-77
2021/05/13 03:36:19;;;;;;;14.85;6.82;;;13.20;73.60;;;;;;5043153;28;20045;-77
2021/05/13 03:38:45;;;;;;;18.73;7.28;;;13.10;74.30;;;;;;5042818;28;20065;-83
2021/05/13 03:41:11;;;;;;;18.50;8.35;;;13.20;73.60;;;;;;5025504;28;20067;-77
2021/05/13 03:43:37;;;;;;;10.90;6.35;;;13.10;73.60;;;;;;5042347;28;20051;-77
2021/05/13 03:46:03;;;;;;;16.63;7.80;;;13.10;73.70;;;;;;5024787;28;20442;-78
2021/05/13 03:48:29;;;;;;;16.98;7.35;;;13.10;73.70;;;;;;5041593;28;20048;-78
2021/05/13 03:50:57;;;;;;;14.93;7.82;;;13.10;73.80;;;;;;5041648;28;20045;-77
2021/05/13 03:53:23;;;;;;;14.77;7.43;;;13.10;73.80;;;;;;5042661;28;20114;-77
2021/05/13 03:55:52;;;;;;;17.17;7.45;;;13.10;73.90;;;;;;5025758;28;20120;-82
2021/05/13 03:58:20;;;;;;;16.92;6.82;;;13.10;73.90;;;;;;5042915;28;20124;-76
2021/05/13 04:03:21;;;;;;;15.50;7.55;;;13.00;73.90;;;;;;5028285;28;20052;-76
2021/05/13 04:05:47;;;;;;;15.75;7.88;;;13.00;73.90;;;;;;5026058;28;20051;-77
2021/05/13 04:08:15;;;;;;;16.35;8.65;;;13.00;73.90;;;;;;5042155;28;20047;-78
2021/05/13 04:10:41;;;;;;;14.57;7.20;;;13.00;73.90;;;;;;5042034;28;20410;-77
2021/05/13 04:13:09;;;;;;;15.70;7.22;;;13.00;74.00;;;;;;5025686;28;20398;-77
2021/05/13 04:15:35;;;;;;;14.80;7.85;;;13.00;74.00;;;;;;5041967;28;20481;-76
2021/05/13 04:18:01;;;;;;;14.07;7.72;;;13.00;74.00;;;;;;5025841;28;20044;-78
2021/05/13 04:20:27;;;;;;;12.95;7.32;;;12.90;74.00;;;;;;5041768;28;20045;-77
2021/05/13 04:22:53;;;;;;;16.52;7.15;;;12.90;74.00;;;;;;5025172;28;20032;-85
2021/05/13 04:25:22;;;;;;;14.43;7.40;;;12.90;74.10;;;;;;5009378;28;20493;-77
2021/05/13 04:27:48;;;;;;;16.50;8.15;;;12.90;74.10;;;;;;5042085;28;20072;-78
2021/05/13 04:30:14;;;;;;;15.55;7.72;;;12.90;74.10;;;;;;5059260;28;20053;-77
2021/05/13 04:32:41;;;;;;;17.38;8.60;;;12.90;74.20;;;;;;5042142;28;20041;-77
2021/05/13 04:35:08;;;;;;;19.88;8.43;;;12.80;74.10;;;;;;5041701;28;20064;-78
2021/05/13 04:37:33;;;;;;;15.13;7.40;;;12.80;74.10;;;;;;5025859;28;20041;-77
2021/05/13 04:40:02;;;;;;;14.98;7.60;;;12.80;74.10;;;;;;5041858;28;20048;-79
2021/05/13 04:42:28;;;;;;;13.77;7.38;;;12.80;74.20;;;;;;5009013;28;20051;-77
2021/05/13 04:44:56;;;;;;;17.15;7.57;;;12.80;74.20;;;;;;5028228;28;20044;-81
2021/05/13 04:49:50;;;;;;;21.63;8.48;;;12.70;74.30;;;;;;5044830;28;20104;-76
2021/05/13 04:52:18;;;;;;;16.42;8.02;;;12.70;74.40;;;;;;5044090;28;20474;-75
2021/05/13 04:54:48;;;;;;;16.25;7.63;;;12.70;74.40;;;;;;5027735;28;20056;-76
2021/05/13 04:57:14;;;;;;;17.02;7.88;;;12.70;74.40;;;;;;5028470;28;20395;-77
2021/05/13 04:59:39;;;;;;;16.33;7.78;;;12.70;74.40;;;;;;5012520;28;20156;-78
2021/05/13 05:02:05;;;;;;;16.02;7.82;;;12.70;74.50;;;;;;5028011;28;20049;-78
2021/05/13 05:04:31;;;;;;;16.38;8.50;;;12.60;74.40;;;;;;5012243;28;20052;-76
2021/05/13 05:06:57;;;;;;;14.27;8.48;;;12.60;74.50;;;;;;5028199;28;20067;-85
2021/05/13 05:09:25;;;;;;;15.98;8.20;;;12.60;74.40;;;;;;5045586;28;20049;-78
2021/05/13 05:11:50;;;;;;;17.05;7.80;;;12.60;74.50;;;;;;5045226;28;20043;-78
2021/05/13 05:14:17;;;;;;;17.55;8.70;;;12.60;74.50;;;;;;5027961;28;20140;-77
2021/05/13 05:16:43;;;;;;;14.27;7.80;;;12.60;74.60;;;;;;5012280;28;20546;-77
2021/05/13 05:19:09;;;;;;;15.38;7.65;;;12.60;74.60;;;;;;5011252;28;20045;-77
2021/05/13 05:21:38;;;;;;;20.60;8.63;;;12.60;74.60;;;;;;5029299;28;20084;-77
2021/05/13 05:24:04;;;;;;;17.27;8.73;;;12.60;74.70;;;;;;5027822;28;20095;-78
2021/05/13 05:26:31;;;;;;;18.02;8.63;;;12.60;74.70;;;;;;5044587;28;20048;-78
2021/05/13 05:28:57;;;;;;;18.08;9.50;;;12.60;74.70;;;;;;5027231;28;20045;-78
2021/05/13 05:31:25;;;;;;;19.65;8.85;;;12.60;74.70;;;;;;5043121;28;20047;-78
2021/05/13 05:33:51;;;;;;;17.92;9.18;;;12.60;74.70;;;;;;5026897;28;20037;-78
2021/05/13 05:36:17;;;;;;;17.30;8.50;;;12.60;74.70;;;;;;5025783;28;20109;-78
2021/05/13 05:38:43;;;;;;;15.10;9.07;;;12.60;74.80;;;;;;5026494;28;20041;-77
2021/05/13 05:41:08;;;;;;;16.35;10.07;;;12.70;74.80;;;;;;5060435;28;20049;-77
2021/05/13 05:43:34;;;;;;;16.85;9.65;;;12.70;74.80;;;;;;5043076;28;20080;-77
2021/05/13 05:46:04;;;;;;;15.85;9.50;;;12.70;74.70;;;;;;5027094;28;20045;-83
2021/05/13 05:48:31;;;;;;;20.85;9.55;;;12.70;74.70;;;;;;5043988;28;20045;-77
2021/05/13 05:50:58;;;;;;;17.52;9.02;;;12.70;74.80;;;;;;5043355;28;20051;-77
2021/05/13 05:53:24;;;;;;;17.65;10.20;;;12.70;74.70;;;;;;5026075;28;20124;-77
2021/05/13 05:55:50;;;;;;;20.63;9.30;;;12.80;74.70;;;;;;5026867;28;20072;-77
2021/05/13 05:58:16;;;;;;;16.25;9.43;;;12.80;74.70;;;;;;5010474;28;20556;-78
2021/05/13 06:00:43;;;;;;;15.52;9.70;;;12.80;74.70;;;;;;5042610;28;20041;-79
2021/05/13 06:03:10;;;;;;;17.05;10.15;;;12.80;74.70;;;;;;5042385;28;20053;-78
2021/05/13 06:05:38;;;;;;;17.58;9.88;;;12.80;74.70;;;;;;5025957;28;20167;-77
2021/05/13 06:08:05;;;;;;;18.52;11.30;;;12.80;74.70;;;;;;5042735;28;20124;-76
2021/05/13 06:10:33;;;;;;;15.82;10.05;;;12.80;74.70;;;;;;5043269;28;20048;-77
2021/05/13 06:12:59;;;;;;;20.98;9.93;;;12.80;74.70;;;;;;5060799;28;20119;-77
2021/05/13 06:15:29;;;;;;;18.92;10.18;;;12.80;74.70;;;;;;5027242;28;20045;-76
2021/05/13 06:17:57;;;;;;;14.57;9.27;;;12.80;74.60;;;;;;5043331;28;20037;-78
2021/05/13 06:20:27;;;;;;;18.15;10.00;;;12.90;74.70;;;;;;5025916;28;20098;-77
2021/05/13 06:22:58;;;;;;;17.05;9.65;;;12.90;74.70;;;;;;5010499;28;20052;-77
2021/05/13 06:25:27;;;;;;;16.02;9.05;;;12.90;74.50;;;;;;4996455;28;20072;-77
2021/05/13 06:27:54;;;;;;;17.85;10.07;;;13.00;74.60;;;;;;5042555;28;20100;-78
2021/05/13 06:31:29;;;;;;;18.52;10.73;;;13.00;74.40;;;;;;5137121;27;20691;-77
2021/05/13 06:33:57;;;;;;;17.38;9.43;;;13.10;74.50;;;;;;5103777;28;20122;-78
2021/05/13 06:36:22;;;;;;;20.80;9.45;;;13.10;74.40;;;;;;5112127;28;20078;-77
2021/05/13 06:38:48;;;;;;;22.02;10.63;;;13.10;74.40;;;;;;5116789;28;20063;-77
2021/05/13 06:41:17;;;;;;;14.82;9.68;;;13.10;74.30;;;;;;5098699;28;20040;-78
2021/05/13 06:43:49;;;;;;;15.00;9.57;;;13.20;74.30;;;;;;5121363;28;20044;-77
2021/05/13 06:46:22;;;;;;;16.73;8.43;;;13.20;74.30;;;;;;5120361;28;20044;-77
2021/05/13 06:48:48;;;;;;;16.00;9.20;;;13.20;74.40;;;;;;5122163;28;20514;-78
2021/05/13 06:51:14;;;;;;;15.77;9.07;;;13.30;74.50;;;;;;5090386;28;20056;-82
2021/05/13 06:53:40;;;;;;;15.80;8.93;;;13.30;74.50;;;;;;5139424;27;20110;-76
2021/05/13 06:56:08;;;;;;;15.20;7.82;;;13.30;74.40;;;;;;5107630;28;20044;-77
2021/05/13 06:58:36;;;;;;;14.10;7.53;;;13.40;74.50;;;;;;5090469;28;20472;-79
2021/05/13 07:01:05;;;;;;;16.60;8.82;;;13.40;74.40;;;;;;5120484;28;20036;-77
2021/05/13 07:03:31;;;;;;;18.27;9.02;;;13.50;74.50;;;;;;5113101;28;20084;-78
2021/05/13 07:06:02;;;;;;;14.10;8.00;;;13.50;74.30;;;;;;5107521;28;20054;-77
2021/05/13 07:08:30;;;;;;;11.70;7.18;;;13.60;74.50;;;;;;5089342;28;20108;-77
2021/05/13 07:10:58;;;;;;;15.30;7.55;;;13.60;74.40;;;;;;5103312;28;20050;-79
2021/05/13 07:13:24;;;;;;;14.77;7.70;;;13.70;74.40;;;;;;5115354;28;20503;-76
2021/05/13 07:15:50;;;;;;;15.95;8.10;;;13.70;74.50;;;;;;5129290;27;20039;-76
2021/05/13 07:18:16;;;;;;;13.40;7.53;;;13.80;74.40;;;;;;5117496;28;20074;-82
2021/05/13 07:20:42;;;;;;;16.02;7.20;;;13.80;74.30;;;;;;5099142;28;20043;-78
2021/05/13 07:23:08;;;;;;;15.95;7.13;;;13.80;74.30;;;;;;5117823;27;20096;-77
2021/05/13 07:25:34;;;;;;;11.68;7.30;;;13.90;74.40;;;;;;5096822;28;20170;-76
2021/05/13 07:28:00;;;;;;;17.48;7.47;;;13.90;74.30;;;;;;5092168;28;20115;-76
2021/05/13 07:30:26;;;;;;;15.00;6.45;;;13.90;74.20;;;;;;5113946;28;20411;-81
2021/05/13 07:32:52;;;;;;;15.75;6.97;;;14.00;74.20;;;;;;5137147;27;20131;-79
2021/05/13 07:35:21;;;;;;;14.55;6.75;;;14.10;73.90;;;;;;5082174;28;20099;-85
2021/05/13 07:37:48;;;;;;;13.52;7.03;;;14.10;74.00;;;;;;5102019;28;20038;-75
2021/05/13 07:40:25;;;;;;;16.40;7.38;;;14.10;74.00;;;;;;5113370;28;20129;-76
2021/05/13 07:42:52;;;;;;;12.63;5.60;;;14.20;73.90;;;;;;5095621;28;20036;-76
2021/05/13 07:45:17;;;;;;;13.98;6.32;;;14.20;73.70;;;;;;5062318;28;20109;-76
2021/05/13 07:47:44;;;;;;;15.07;6.53;;;14.20;73.70;;;;;;5075795;28;20049;-75
2021/05/13 07:50:20;;;;;;;14.68;6.18;;;14.20;73.60;;;;;;5085463;28;20089;-76
2021/05/13 07:52:46;;;;;;;12.57;5.93;;;14.30;73.50;;;;;;5095961;28;20048;-75
2021/05/13 07:55:12;;;;;;;14.13;7.05;;;14.30;73.50;;;;;;5112844;28;20068;-77
2021/05/13 07:57:38;;;;;;;13.48;5.95;;;14.40;73.30;;;;;;5087603;28;20465;-76
2021/05/13 08:00:05;;;;;;;12.77;6.13;;;14.40;73.10;;;;;;5076282;28;20053;-74
2021/05/13 08:02:31;;;;;;;16.13;6.95;;;14.40;73.10;;;;;;5075324;28;20042;-75
2021/05/13 08:04:57;;;;;;;15.55;6.03;;;14.50;73.20;;;;;;5059879;28;20064;-76
2021/05/13 08:07:23;;;;;;;13.93;6.28;;;14.60;73.00;;;;;;5081149;28;20156;-85
2021/05/13 08:09:49;;;;;;;15.25;7.03;;;14.60;72.90;;;;;;5098857;28;20116;-79
2021/05/13 08:12:15;;;;;;;16.02;7.38;;;14.70;72.90;;;;;;5115579;28;20064;-78
2021/05/13 08:14:41;;;;;;;13.95;6.45;;;14.80;73.00;;;;;;5065066;28;20545;-77
2021/05/13 08:17:07;;;;;;;16.25;6.55;;;14.90;72.90;;;;;;5069118;28;20064;-76
2021/05/13 08:19:33;;;;;;;15.85;6.55;;;15.00;72.80;;;;;;5103394;28;20032;-77
2021/05/13 08:21:59;;;;;;;14.30;6.82;;;15.10;72.60;;;;;;5073721;28;20040;-75
2021/05/13 08:24:24;;;;;;;13.13;6.50;;;15.20;72.50;;;;;;5073690;28;20066;-84
2021/05/13 08:26:50;;;;;;;8.23;4.38;;;15.30;72.20;;;;;;5096375;28;20048;-76
2021/05/13 08:29:16;;;;;;;5.05;3.40;;;15.40;72.30;;;;;;5077315;28;20127;-73
2021/05/13 08:31:42;;;;;;;6.47;2.92;;;15.60;72.20;;;;;;5078020;28;20040;-77
2021/05/13 08:34:08;;;;;;;10.07;4.72;;;15.90;71.60;;;;;;5096657;28;20032;-79
2021/05/13 08:36:34;;;;;;;10.45;4.85;;;16.10;70.80;;;;;;5102286;28;20127;-78
2021/05/13 08:39:00;;;;;;;5.82;2.90;;;16.30;70.20;;;;;;5077945;28;20059;-78
2021/05/13 08:41:26;;;;;;;8.45;3.63;;;16.50;69.90;;;;;;5093162;28;20051;-79
2021/05/13 08:43:52;;;;;;;10.43;5.20;;;16.70;69.40;;;;;;5089997;28;20468;-86
2021/05/13 08:46:19;;;;;;;12.55;5.15;;;16.80;68.40;;;;;;5072626;28;20032;-87
2021/05/13 08:48:47;;;;;;;12.65;5.70;;;16.90;67.70;;;;;;5076079;28;20072;-83
2021/05/13 08:51:13;;;;;;;8.38;4.65;;;16.90;67.20;;;;;;5066482;28;20153;-81
2021/05/13 08:53:55;;;;;;;13.27;5.22;;;16.90;66.70;;;;;;5104764;27;20122;-81
2021/05/13 08:56:24;;;;;;;10.35;5.10;;;16.90;65.80;;;;;;5068755;28;20056;-80
2021/05/13 08:58:50;;;;;;;10.20;4.13;;;16.90;66.10;;;;;;5066158;28;20040;-80
2021/05/13 09:01:17;;;;;;;10.55;4.63;;;16.80;65.60;;;;;;5059822;28;20048;-81
2021/05/13 09:03:44;;;;;;;8.63;4.25;;;16.90;65.40;;;;;;5070867;28;20048;-81
2021/05/13 09:06:21;;;;;;;9.50;4.22;;;16.90;65.20;;;;;;5055133;28;20121;-78
2021/05/13 09:08:46;;;;;;;9.65;3.78;;;16.90;64.60;;;;;;5077987;28;20062;-82
2021/05/13 09:11:30;;;;;;;9.07;3.80;;;16.90;64.50;;;;;;5069760;28;20493;-77
2021/05/13 09:14:00;;;;;;;8.85;3.75;;;17.00;64.30;;;;;;5067634;28;20100;-77
2021/05/13 09:16:30;;;;;;;8.15;3.47;;;17.00;63.70;;;;;;5084038;28;20048;-77
2021/05/13 09:18:56;;;;;;;9.75;3.65;;;17.00;63.50;;;;;;5066881;28;20200;-78
2021/05/13 09:21:26;;;;;;;8.80;3.15;;;17.10;63.50;;;;;;5089723;28;20044;-81
2021/05/13 09:23:57;;;;;;;10.88;4.43;;;17.20;63.20;;;;;;5090426;28;20069;-75
2021/05/13 09:26:23;;;;;;;8.63;4.40;;;17.30;63.00;;;;;;5069955;28;20480;-76
2021/05/13 09:29:07;;;;;;;8.98;3.78;;;17.40;63.60;;;;;;5109013;28;20028;-81
2021/05/13 09:31:42;;;;;;;7.63;3.55;;;17.60;63.90;;;;;;5076558;28;20404;-74
2021/05/13 09:34:10;;;;;;;9.20;3.60;;;17.70;64.00;;;;;;5107127;28;20040;-83
2021/05/13 09:36:37;;;;;;;10.60;3.80;;;17.90;63.60;;;;;;5066745;28;20044;-85
2021/05/13 09:39:25;;;;;;;7.32;3.70;;;18.00;62.60;;;;;;5084055;28;20036;-79
2021/05/13 09:42:01;;;;;;;9.45;3.83;;;18.00;61.70;;;;;;5082647;28;20122;-79
2021/05/13 09:44:32;;;;;;;7.32;3.35;;;18.10;61.50;;;;;;5082663;28;20037;-79
2021/05/13 09:46:58;;;;;;;7.57;3.30;;;18.20;61.80;;;;;;5071463;28;20100;-81
2021/05/13 09:49:23;;;;;;;9.70;3.58;;;18.30;61.80;;;;;;5073223;28;20499;-79
2021/05/13 09:51:49;;;;;;;8.73;3.50;;;18.40;61.60;;;;;;5083633;28;20079;-81
2021/05/13 09:54:16;;;;;;;10.10;4.00;;;18.50;61.10;;;;;;5083439;28;20040;-80
2021/05/13 09:56:46;;;;;;;8.90;3.20;;;18.50;60.60;;;;;;5082482;28;20068;-84
2021/05/13 09:59:24;;;;;;;9.20;4.13;;;18.60;60.60;;;;;;5093503;28;20048;-80
2021/05/13 10:01:51;;;;;;;7.78;3.30;;;18.80;59.80;;;;;;5076332;28;20404;-76
2021/05/13 10:04:18;;;;;;;6.97;3.22;;;18.80;59.40;;;;;;5106054;27;20040;-85
2021/05/13 10:06:46;;;;;;;7.93;3.15;;;18.90;59.60;;;;;;5059799;28;20097;-84
2021/05/13 10:09:15;;;;;;;6.40;3.15;;;19.00;59.40;;;;;;5075999;28;20131;-81
2021/05/13 10:11:51;;;;;;;8.32;3.50;;;19.00;59.30;;;;;;5060473;28;20037;-86
2021/05/13 10:14:18;;;;;;;6.95;3.38;;;19.00;58.40;;;;;;5046398;28;20044;-75
2021/05/13 10:16:44;;;;;;;7.57;3.40;;;19.00;58.80;;;;;;5079602;28;20048;-80
2021/05/13 10:19:22;;;;;;;7.22;3.45;;;19.10;58.90;;;;;;5079986;28;20044;-79
2021/05/13 10:21:48;;;;;;;6.95;3.10;;;19.20;58.70;;;;;;5079580;28;20119;-82
2021/05/13 10:24:14;;;;;;;6.97;2.92;;;19.30;58.50;;;;;;5060089;28;20076;-83
2021/05/13 10:26:43;;;;;;;7.20;3.00;;;19.40;57.80;;;;;;5071923;28;20036;-82
2021/05/13 10:29:22;;;;;;;8.15;3.10;;;19.50;57.50;;;;;;5075683;28;20074;-82
2021/05/13 10:32:16;;;;;;;6.50;2.80;;;19.70;56.80;;;;;;5092828;28;20072;-86
2021/05/13 10:34:45;;;;;;;9.23;3.65;;;19.80;56.20;;;;;;5066885;28;20044;-78
2021/05/13 10:37:12;;;;;;;7.13;2.85;;;19.90;56.30;;;;;;5079064;28;20044;-77
2021/05/13 10:40:15;;;;;;;8.00;3.10;;;20.10;55.40;;;;;;5076394;28;20048;-78
2021/05/13 10:42:42;;;;;;;7.72;2.58;;;20.10;53.60;;;;;;5089664;28;20745;-79
2021/05/13 10:45:23;;;;;;;6.10;2.70;;;20.10;53.90;;;;;;5073286;28;20122;-76
2021/05/13 10:48:12;;;;;;;5.88;2.80;;;20.20;53.20;;;;;;5089343;28;20040;-84
2021/05/13 10:50:49;;;;;;;6.88;2.40;;;20.20;51.90;;;;;;5073693;28;20481;-76
2021/05/13 10:53:33;;;;;;;5.43;2.10;;;20.30;52.70;;;;;;5073809;28;20051;-77
2021/05/13 10:56:29;;;;;;;7.07;3.00;;;20.40;52.60;;;;;;5092423;28;20469;-77
2021/05/13 10:59:09;;;;;;;9.48;3.20;;;20.60;51.30;;;;;;5073681;28;20039;-75
2021/05/13 11:01:48;;;;;;;6.72;2.92;;;20.90;51.70;;;;;;5071399;28;20075;-74
2021/05/13 11:04:20;;;;;;;11.55;4.13;;;21.00;51.50;;;;;;5072810;28;20044;-76
2021/05/13 11:06:56;;;;;;;8.45;3.92;;;21.20;50.40;;;;;;5072159;28;20045;-75
2021/05/13 11:09:44;;;;;;;6.57;3.35;;;21.40;50.20;;;;;;5071145;28;20434;-75
2021/05/13 11:12:14;;;;;;;6.43;2.90;;;21.50;49.10;;;;;;5071677;28;20036;-76
2021/05/13 11:20:22;;;;;;;6.90;3.25;;;21.80;47.60;;;;;;5077292;28;20147;-78
2021/05/13 11:22:51;;;;;;;7.13;3.15;;;21.90;47.70;;;;;;5077131;28;20468;-76
2021/05/13 11:25:17;;;;;;;9.27;3.03;;;21.90;47.50;;;;;;5076272;28;20048;-77
2021/05/13 11:27:43;;;;;;;8.15;3.53;;;21.80;47.00;;;;;;5078281;28;20063;-77
2021/05/13 11:30:09;;;;;;;7.93;2.90;;;21.80;46.90;;;;;;5059247;28;20438;-75
2021/05/13 11:32:35;;;;;;;8.25;2.55;;;22.00;47.70;;;;;;5093831;28;20040;-77
2021/05/13 11:35:01;;;;;;;7.38;3.42;;;22.30;47.30;;;;;;5077472;28;20045;-77
2021/05/13 11:37:35;;;;;;;7.53;3.58;;;22.40;46.20;;;;;;5083307;28;20517;-75
2021/05/13 11:40:17;;;;;;;9.85;4.93;;;22.30;45.20;;;;;;5097260;28;20047;-76
2021/05/13 11:42:43;;;;;;;9.90;3.58;;;22.00;44.70;;;;;;5098716;28;20047;-74
2021/05/13 11:45:19;;;;;;;6.18;3.33;;;21.80;46.10;;;;;;5080059;28;20105;-76
2021/05/13 11:47:45;;;;;;;8.10;3.10;;;21.60;45.60;;;;;;5097737;28;20452;-77
2021/05/13 11:50:28;;;;;;;5.63;2.78;;;21.40;46.50;;;;;;5096748;28;20048;-79
2021/05/13 11:53:10;;;;;;;7.68;3.20;;;21.20;45.40;;;;;;5098645;28;20079;-77
2021/05/13 11:55:35;;;;;;;6.97;3.20;;;21.00;46.30;;;;;;5099115;28;20537;-75
2021/05/13 11:58:01;;;;;;;6.25;2.83;;;20.80;47.20;;;;;;5095960;28;20048;-76
2021/05/13 12:00:27;;;;;;;8.60;3.55;;;20.70;47.20;;;;;;5097626;28;20123;-77
2021/05/13 12:03:12;;;;;;;8.07;3.17;;;20.60;47.40;;;;;;5099442;28;20388;-77
2021/05/13 12:05:51;;;;;;;6.53;3.10;;;20.50;47.60;;;;;;5099118;28;20040;-78
2021/05/13 12:08:22;;;;;;;7.65;3.03;;;20.30;46.90;;;;;;5096875;28;20484;-77
2021/05/13 12:10:48;;;;;;;10.10;3.45;;;20.20;47.80;;;;;;5085955;28;20040;-81
2021/05/13 12:13:14;;;;;;;7.20;3.50;;;20.10;48.40;;;;;;5100448;28;20044;-78
2021/05/13 12:15:40;;;;;;;7.57;3.50;;;20.00;48.70;;;;;;5072466;28;20039;-77
2021/05/13 12:18:06;;;;;;;9.57;3.45;;;19.90;48.50;;;;;;5131674;27;20047;-77
2021/05/13 12:20:33;;;;;;;9.48;4.05;;;19.80;48.60;;;;;;5102417;28;20063;-78
2021/05/13 12:23:00;;;;;;;7.85;3.15;;;19.70;48.10;;;;;;5118565;28;20130;-83
2021/05/13 12:25:26;;;;;;;7.93;2.97;;;19.60;48.20;;;;;;5103611;28;20117;-79
2021/05/13 12:27:52;;;;;;;11.60;4.43;;;19.50;48.30;;;;;;5086156;28;20048;-77
2021/05/13 12:30:19;;;;;;;7.85;3.50;;;19.50;48.70;;;;;;5106064;27;20104;-75
2021/05/13 12:32:47;;;;;;;7.72;3.60;;;19.50;49.00;;;;;;5085041;28;20039;-76
2021/05/13 12:35:28;;;;;;;9.85;4.13;;;19.50;49.10;;;;;;5094394;28;20044;-75
2021/05/13 12:38:10;;;;;;;8.40;3.33;;;19.50;48.50;;;;;;5098266;28;20125;-77
2021/05/13 12:40:36;;;;;;;6.38;3.50;;;19.50;48.90;;;;;;5096666;28;20070;-77
2021/05/13 12:43:15;;;;;;;8.65;3.42;;;19.50;48.90;;;;;;5096136;28;20544;-76
2021/05/13 12:45:51;;;;;;;7.72;3.47;;;19.60;48.60;;;;;;5075628;28;20064;-74
2021/05/13 12:48:23;;;;;;;9.18;3.60;;;19.70;48.60;;;;;;5073842;28;20456;-74
2021/05/13 12:50:56;;;;;;;7.82;3.30;;;19.70;48.70;;;;;;5073984;28;20037;-77
2021/05/13 12:53:23;;;;;;;6.22;3.60;;;19.70;48.60;;;;;;5091958;28;20060;-75
2021/05/13 12:55:48;;;;;;;7.88;3.72;;;19.70;48.30;;;;;;5093079;28;20040;-77
2021/05/13 12:58:19;;;;;;;8.13;3.20;;;19.80;48.20;;;;;;5076098;28;20423;-77
2021/05/13 13:00:59;;;;;;;7.55;3.03;;;19.90;48.00;;;;;;5092056;28;20052;-76
2021/05/13 13:03:44;;;;;;;6.88;2.85;;;20.20;47.90;;;;;;5077622;28;20044;-80